Time;durP1;ratioP1;P1;durP2;ratioP2;P2;SDS_P1;SDS_P2;PMS_P1;PMS_P2;Temp;Humidity;BMP_temperature;BMP_pressure;BME280_temperature;BME280_humidity;BME280_pressure;Samples;Min_cycle;Max_cycle;Signal;HPM_P1;HPM_P2
2023/01/29 00:01:29;;;;;;;10.73;6.77;;;8.40;99.90;;;;;;10386443;28;20208;-85
2023/01/29 00:06:31;;;;;;;13.37;7.27;;;8.40;99.90;;;;;;10391549;28;20204;-85
2023/01/29 00:11:34;;;;;;;11.40;6.33;;;8.40;99.90;;;;;;10379486;28;20210;-86
2023/01/29 00:16:37;;;;;;;11.90;6.67;;;8.20;99.90;;;;;;10379120;28;20213;-86
2023/01/29 00:21:39;;;;;;;11.20;5.90;;;8.00;99.90;;;;;;10379327;28;20195;-86
2023/01/29 00:26:42;;;;;;;12.60;6.67;;;8.10;99.90;;;;;;10379023;28;20206;-85
2023/01/29 00:31:45;;;;;;;15.43;7.67;;;8.80;98.80;;;;;;10377357;28;20202;-86
2023/01/29 00:36:50;;;;;;;6.70;4.60;;;8.50;99.90;;;;;;10393387;28;20640;-85
2023/01/29 00:47:29;;;;;;;11.90;5.60;;;8.20;99.90;;;;;;10392917;28;20744;-86
2023/01/29 00:52:32;;;;;;;8.77;5.50;;;7.90;99.90;;;;;;10377805;28;20259;-86
2023/01/29 00:57:35;;;;;;;12.00;6.37;;;8.60;99.90;;;;;;10377640;28;20643;-86
2023/01/29 01:08:00;;;;;;;9.70;6.00;;;8.60;99.90;;;;;;10375858;28;20580;-86
2023/01/29 01:13:05;;;;;;;9.27;6.10;;;8.10;99.90;;;;;;10377133;28;20225;-86
2023/01/29 01:18:09;;;;;;;9.67;6.40;;;9.30;99.90;;;;;;10390687;28;20270;-86
2023/01/29 01:23:11;;;;;;;10.87;5.83;;;8.60;99.90;;;;;;10392024;28;20617;-86
2023/01/29 01:28:14;;;;;;;10.23;6.80;;;9.60;99.90;;;;;;10376572;28;20204;-86
2023/01/29 01:33:17;;;;;;;10.00;5.87;;;9.10;99.90;;;;;;10391606;28;20208;-86
2023/01/29 01:38:19;;;;;;;9.13;6.23;;;9.30;99.90;;;;;;10391545;28;20225;-85
2023/01/29 01:43:22;;;;;;;9.53;5.87;;;8.70;97.90;;;;;;10376260;28;20224;-85
2023/01/29 01:48:26;;;;;;;9.20;6.37;;;8.50;99.50;;;;;;10391223;28;20223;-86
2023/01/29 01:53:42;;;;;;;13.60;8.23;;;8.50;99.90;;;;;;10375785;28;20665;-86
2023/01/29 01:58:50;;;;;;;10.97;6.03;;;7.80;98.50;;;;;;10374416;28;20255;-85
2023/01/29 02:09:52;;;;;;;10.13;6.20;;;8.30;99.90;;;;;;10390370;28;20205;-85
2023/01/29 02:14:56;;;;;;;10.93;5.77;;;8.30;98.00;;;;;;10373170;28;20282;-86
2023/01/29 02:20:06;;;;;;;6.80;5.90;;;8.10;99.90;;;;;;10374864;28;20611;-86
2023/01/29 02:25:39;;;;;;;11.00;6.27;;;7.80;99.90;;;;;;10388576;28;20566;-86
2023/01/29 02:30:47;;;;;;;8.67;6.37;;;8.50;99.90;;;;;;10371650;28;20547;-85
2023/01/29 02:36:25;;;;;;;8.10;5.83;;;7.90;97.50;;;;;;10373618;28;20585;-86
2023/01/29 02:41:53;;;;;;;9.33;6.50;;;8.80;99.90;;;;;;10329781;28;20258;-86
2023/01/29 02:47:20;;;;;;;8.43;5.30;;;8.30;99.80;;;;;;10371766;28;20212;-86
2023/01/29 02:52:35;;;;;;;11.30;7.17;;;8.30;99.90;;;;;;10371973;28;20209;-86
2023/01/29 02:57:42;;;;;;;11.17;6.57;;;8.00;99.60;;;;;;10385161;28;20239;-86
2023/01/29 03:03:07;;;;;;;10.43;6.93;;;7.50;99.90;;;;;;10387721;28;20274;-86
2023/01/29 03:08:15;;;;;;;10.23;6.27;;;7.50;96.60;;;;;;10387563;28;20262;-85
2023/01/29 03:13:26;;;;;;;8.73;5.23;;;7.80;99.70;;;;;;10387129;28;20204;-86
2023/01/29 03:18:42;;;;;;;10.97;6.13;;;8.20;99.90;;;;;;10370470;28;20228;-85
2023/01/29 03:34:37;;;;;;;7.60;4.30;;;8.40;99.90;;;;;;10372118;28;20267;-85
2023/01/29 03:39:41;;;;;;;8.37;4.87;;;8.60;99.90;;;;;;10386046;28;20209;-85
2023/01/29 03:44:52;;;;;;;8.50;6.67;;;9.00;99.90;;;;;;10369891;28;20214;-85
2023/01/29 03:50:12;;;;;;;7.67;5.73;;;8.90;99.90;;;;;;10369813;28;20262;-85
2023/01/29 03:55:23;;;;;;;7.23;4.83;;;8.40;97.40;;;;;;10386108;28;20244;-85
2023/01/29 04:00:33;;;;;;;6.67;4.77;;;9.30;99.90;;;;;;10386260;28;20205;-85
2023/01/29 04:06:16;;;;;;;7.80;5.33;;;9.70;97.30;;;;;;10369713;28;20209;-85
2023/01/29 04:11:29;;;;;;;9.13;5.73;;;9.70;99.90;;;;;;10350555;28;20212;-85
2023/01/29 04:16:37;;;;;;;6.37;4.47;;;9.30;99.90;;;;;;10368851;28;20232;-85
2023/01/29 04:22:04;;;;;;;11.70;6.10;;;9.20;99.90;;;;;;10385645;28;20208;-85
2023/01/29 04:27:34;;;;;;;8.10;5.63;;;9.60;99.00;;;;;;10386224;28;20212;-85
2023/01/29 04:33:04;;;;;;;7.43;5.37;;;9.70;95.70;;;;;;10368608;28;20263;-85
2023/01/29 04:38:48;;;;;;;7.67;5.23;;;9.60;99.90;;;;;;10385452;28;20636;-85
2023/01/29 04:43:59;;;;;;;6.67;5.07;;;10.00;99.90;;;;;;10244370;29;20218;-86
2023/01/29 04:49:14;;;;;;;8.17;4.63;;;10.10;98.10;;;;;;10244933;29;20218;-86
2023/01/29 04:54:39;;;;;;;8.40;5.17;;;9.40;97.50;;;;;;10252181;28;20646;-86
2023/01/29 04:59:47;;;;;;;8.60;5.57;;;9.30;98.40;;;;;;10252300;29;20218;-86
2023/01/29 05:04:51;;;;;;;10.13;5.93;;;8.90;95.50;;;;;;10251985;29;20214;-86
2023/01/29 05:09:54;;;;;;;7.50;5.50;;;9.60;98.10;;;;;;10251760;29;20214;-85
2023/01/29 05:15:01;;;;;;;6.20;4.53;;;9.40;97.50;;;;;;10219523;29;20327;-86
2023/01/29 05:20:04;;;;;;;7.43;4.93;;;9.50;99.60;;;;;;10359193;28;20620;-85
2023/01/29 05:25:23;;;;;;;7.17;4.83;;;9.50;99.90;;;;;;10376155;28;20621;-86
2023/01/29 05:30:26;;;;;;;5.93;4.07;;;9.90;99.90;;;;;;10376391;28;20196;-85
2023/01/29 05:35:28;;;;;;;5.80;4.00;;;9.90;99.90;;;;;;10375791;28;20248;-85
2023/01/29 05:40:31;;;;;;;7.87;5.33;;;9.70;99.90;;;;;;10391151;28;20242;-86
2023/01/29 05:45:34;;;;;;;6.83;4.93;;;9.10;99.60;;;;;;10390377;28;20222;-86
2023/01/29 05:50:36;;;;;;;6.53;4.50;;;9.40;99.80;;;;;;10375557;28;20636;-86
2023/01/29 05:55:39;;;;;;;9.67;5.43;;;9.70;99.90;;;;;;10373335;28;20231;-85
2023/01/29 06:00:41;;;;;;;7.10;5.57;;;10.00;94.50;;;;;;10374806;28;20204;-85
2023/01/29 06:05:44;;;;;;;9.57;5.03;;;9.60;96.70;;;;;;10374229;28;20256;-86
2023/01/29 06:10:46;;;;;;;5.63;3.83;;;8.80;98.00;;;;;;10373366;28;20558;-86
2023/01/29 06:15:49;;;;;;;6.83;4.03;;;9.40;99.90;;;;;;10374269;28;20220;-86
2023/01/29 06:20:52;;;;;;;7.63;5.40;;;9.70;99.90;;;;;;10374710;28;20196;-86
2023/01/29 06:25:59;;;;;;;7.43;4.97;;;9.50;99.90;;;;;;10374737;28;20246;-86
2023/01/29 06:31:03;;;;;;;5.60;3.27;;;10.50;98.20;;;;;;10374151;28;20197;-86
2023/01/29 06:36:26;;;;;;;5.67;4.07;;;10.30;99.90;;;;;;10374080;28;20227;-86
2023/01/29 06:41:28;;;;;;;5.57;4.10;;;9.70;99.90;;;;;;10373946;28;20193;-86
2023/01/29 06:46:31;;;;;;;8.83;4.70;;;10.00;99.90;;;;;;10373504;28;20205;-86
2023/01/29 06:51:33;;;;;;;5.57;3.93;;;9.60;99.90;;;;;;10373548;28;20681;-86
2023/01/29 06:56:36;;;;;;;5.83;5.03;;;9.50;99.90;;;;;;10371449;28;20580;-86
2023/01/29 07:01:41;;;;;;;5.83;4.40;;;10.20;99.90;;;;;;10373228;28;20200;-86
2023/01/29 07:06:43;;;;;;;14.07;6.60;;;9.90;99.90;;;;;;10372365;28;20277;-86
2023/01/29 07:11:46;;;;;;;7.27;5.90;;;9.90;96.30;;;;;;10387322;28;20548;-86
2023/01/29 07:16:49;;;;;;;6.27;5.10;;;9.30;97.30;;;;;;10386672;28;20222;-86
2023/01/29 07:21:51;;;;;;;9.47;6.13;;;8.60;99.90;;;;;;10372761;28;20197;-86
2023/01/29 07:26:54;;;;;;;8.23;5.83;;;9.10;99.90;;;;;;10372456;28;20208;-86
2023/01/29 07:31:57;;;;;;;7.93;5.33;;;9.00;99.90;;;;;;10387137;28;20216;-85
2023/01/29 07:36:59;;;;;;;8.73;6.73;;;8.80;99.90;;;;;;10387134;28;20632;-85
2023/01/29 07:42:02;;;;;;;8.50;4.93;;;9.20;99.90;;;;;;10371893;28;20227;-86
2023/01/29 07:47:04;;;;;;;7.33;4.83;;;9.20;99.90;;;;;;10387057;28;20243;-85
2023/01/29 07:52:07;;;;;;;4.47;2.90;;;9.40;99.90;;;;;;10386249;28;20250;-85
2023/01/29 07:57:10;;;;;;;7.57;6.03;;;9.80;99.90;;;;;;10369833;28;20244;-86
2023/01/29 08:02:13;;;;;;;8.70;6.10;;;9.60;99.90;;;;;;10386631;28;20620;-86
2023/01/29 08:07:15;;;;;;;8.43;4.33;;;9.80;99.90;;;;;;10386857;28;20192;-86
2023/01/29 08:12:18;;;;;;;9.50;6.10;;;10.40;99.90;;;;;;10371349;28;20204;-86
2023/01/29 08:17:20;;;;;;;8.43;6.43;;;10.00;99.40;;;;;;10385662;28;20308;-85
2023/01/29 08:22:23;;;;;;;6.20;4.10;;;10.10;98.80;;;;;;10371279;28;20219;-86
2023/01/29 08:27:25;;;;;;;5.10;2.77;;;10.20;99.90;;;;;;10375377;28;20259;-85
2023/01/29 08:32:29;;;;;;;5.53;4.37;;;10.40;99.90;;;;;;10393699;28;20308;-85
2023/01/29 08:37:32;;;;;;;7.17;5.30;;;11.10;99.70;;;;;;10378760;28;20221;-86
2023/01/29 08:42:35;;;;;;;4.40;2.57;;;10.90;97.80;;;;;;10393735;28;20562;-86
2023/01/29 08:47:37;;;;;;;9.73;5.53;;;11.00;99.90;;;;;;10378266;28;20539;-86
2023/01/29 08:52:40;;;;;;;4.87;3.60;;;11.10;99.30;;;;;;10393091;28;20682;-85
2023/01/29 08:57:42;;;;;;;7.17;4.93;;;11.00;99.90;;;;;;10377883;28;20303;-86
2023/01/29 09:02:45;;;;;;;9.97;7.07;;;10.90;99.90;;;;;;10377596;28;20204;-85
2023/01/29 09:07:47;;;;;;;5.33;4.33;;;10.50;93.40;;;;;;10377162;28;20207;-86
2023/01/29 09:12:50;;;;;;;10.80;6.60;;;10.90;99.90;;;;;;10377377;28;20208;-85
2023/01/29 09:17:52;;;;;;;7.37;5.33;;;11.00;96.80;;;;;;10376989;28;20222;-85
2023/01/29 09:22:55;;;;;;;6.50;3.67;;;10.30;99.90;;;;;;10377262;28;20242;-86
2023/01/29 09:27:58;;;;;;;8.77;5.23;;;11.20;99.90;;;;;;10392028;28;20201;-85
2023/01/29 09:33:00;;;;;;;5.50;4.17;;;10.30;99.90;;;;;;10375145;28;20279;-86
2023/01/29 09:38:03;;;;;;;9.50;7.63;;;10.70;99.70;;;;;;10375112;28;20776;-86
2023/01/29 09:43:14;;;;;;;9.87;5.13;;;10.40;95.20;;;;;;10376014;28;20232;-86
2023/01/29 09:48:18;;;;;;;8.73;6.30;;;10.30;99.90;;;;;;10376109;28;20200;-85
2023/01/29 09:53:33;;;;;;;9.40;6.20;;;11.00;94.90;;;;;;10390923;28;20208;-86
2023/01/29 09:58:38;;;;;;;4.57;2.93;;;10.50;95.80;;;;;;10375440;28;20287;-86
2023/01/29 10:04:02;;;;;;;11.33;7.53;;;11.40;99.90;;;;;;10374160;28;20201;-86
2023/01/29 10:09:38;;;;;;;9.27;6.17;;;10.90;98.60;;;;;;10375319;28;20204;-86
2023/01/29 10:15:01;;;;;;;7.63;4.73;;;10.20;97.70;;;;;;10375002;28;20263;-85
2023/01/29 10:20:40;;;;;;;8.57;5.40;;;10.80;99.90;;;;;;10374931;28;20222;-86
2023/01/29 10:25:44;;;;;;;8.43;6.17;;;10.60;96.60;;;;;;10373635;28;20201;-87
2023/01/29 10:30:49;;;;;;;6.83;5.87;;;10.50;97.20;;;;;;10372658;28;20670;-86
2023/01/29 10:35:57;;;;;;;8.67;5.53;;;9.90;99.00;;;;;;10374181;28;20197;-86
2023/01/29 10:41:18;;;;;;;6.57;4.47;;;10.20;99.90;;;;;;10373755;28;20569;-86
2023/01/29 10:46:33;;;;;;;4.50;3.63;;;11.30;99.50;;;;;;10373517;28;20254;-87
2023/01/29 10:52:07;;;;;;;9.80;5.57;;;11.40;99.90;;;;;;10372949;28;20251;-86
2023/01/29 10:57:29;;;;;;;8.20;6.00;;;10.40;99.90;;;;;;10360146;28;20233;-85
2023/01/29 11:02:33;;;;;;;15.43;10.53;;;10.50;99.70;;;;;;10373353;28;20201;-86
2023/01/29 11:07:35;;;;;;;9.10;6.53;;;9.80;94.10;;;;;;10373362;28;20820;-86
2023/01/29 11:12:40;;;;;;;4.87;4.37;;;10.00;99.90;;;;;;10373136;28;20602;-86
2023/01/29 11:18:10;;;;;;;9.70;6.50;;;11.20;99.90;;;;;;10371018;28;20247;-87
2023/01/29 11:23:28;;;;;;;5.50;3.43;;;11.60;99.90;;;;;;10387377;28;20262;-86
2023/01/29 11:28:46;;;;;;;7.23;4.50;;;11.70;99.90;;;;;;10387166;28;20203;-86
2023/01/29 11:33:52;;;;;;;7.10;5.60;;;11.00;97.20;;;;;;10370996;28;20570;-86
2023/01/29 11:39:08;;;;;;;1.80;1.53;;;10.70;99.10;;;;;;10372101;28;20216;-87
2023/01/29 11:44:20;;;;;;;7.23;5.03;;;11.30;99.90;;;;;;10371376;28;20207;-86
2023/01/29 11:49:33;;;;;;;10.40;7.60;;;10.90;97.40;;;;;;10371951;28;20197;-86
2023/01/29 11:54:49;;;;;;;10.33;6.37;;;10.60;97.20;;;;;;10371726;28;20568;-87
2023/01/29 11:59:54;;;;;;;9.77;6.23;;;10.50;99.80;;;;;;10371828;28;20233;-87
2023/01/29 12:05:01;;;;;;;3.67;2.17;;;10.30;98.60;;;;;;10379881;28;20204;-87
2023/01/29 12:10:04;;;;;;;7.73;5.67;;;11.10;96.10;;;;;;10380015;28;20275;-87
2023/01/29 12:15:25;;;;;;;13.37;8.07;;;10.70;99.60;;;;;;10377822;28;20200;-86
2023/01/29 12:20:50;;;;;;;8.67;6.33;;;10.40;99.90;;;;;;10394392;28;20229;-87
2023/01/29 12:26:11;;;;;;;10.07;6.57;;;10.60;99.90;;;;;;10378855;28;20206;-87
2023/01/29 12:31:17;;;;;;;6.07;5.37;;;10.80;98.60;;;;;;10394119;28;20620;-87
2023/01/29 12:36:39;;;;;;;6.50;4.63;;;11.40;99.20;;;;;;10393643;28;20662;-87
2023/01/29 12:41:56;;;;;;;10.60;6.73;;;11.10;97.20;;;;;;10378524;28;20196;-87
2023/01/29 12:47:02;;;;;;;11.20;7.73;;;11.00;95.10;;;;;;10378281;28;20192;-87
2023/01/29 12:52:15;;;;;;;16.90;11.17;;;10.80;98.00;;;;;;10393451;28;20198;-87
2023/01/29 12:58:00;;;;;;;4.33;2.23;;;10.30;90.80;;;;;;10392751;28;20294;-87
2023/01/29 13:03:16;;;;;;;8.47;5.07;;;10.50;99.90;;;;;;10351515;28;20267;-87
2023/01/29 13:08:38;;;;;;;6.07;4.27;;;11.50;99.90;;;;;;10377479;28;20214;-87
2023/01/29 13:13:51;;;;;;;9.50;5.27;;;10.90;98.50;;;;;;10375550;28;20231;-87
2023/01/29 13:19:13;;;;;;;12.00;7.80;;;10.70;99.30;;;;;;10391804;28;20286;-87
2023/01/29 13:24:23;;;;;;;9.80;7.03;;;10.90;99.90;;;;;;10391816;28;20617;-87
2023/01/29 13:29:29;;;;;;;10.73;8.27;;;11.10;95.80;;;;;;10375257;28;20625;-87
2023/01/29 13:34:35;;;;;;;9.97;5.63;;;10.60;97.60;;;;;;10375044;28;20210;-87
2023/01/29 13:39:45;;;;;;;9.40;6.20;;;10.60;99.90;;;;;;10376465;28;20225;-87
2023/01/29 13:44:50;;;;;;;11.07;7.83;;;10.30;98.80;;;;;;10376326;28;20199;-87
2023/01/29 13:50:04;;;;;;;10.00;7.80;;;10.30;99.80;;;;;;10376063;28;20248;-87
2023/01/29 13:55:21;;;;;;;7.63;4.80;;;11.00;98.20;;;;;;10390742;28;20245;-87
2023/01/29 14:00:33;;;;;;;9.07;5.60;;;10.50;99.90;;;;;;10390246;28;20283;-87
2023/01/29 14:05:53;;;;;;;14.03;9.93;;;11.10;97.30;;;;;;10390169;28;20736;-86
2023/01/29 14:11:14;;;;;;;7.13;5.03;;;10.90;93.70;;;;;;10373452;28;20677;-87
2023/01/29 14:16:17;;;;;;;4.90;3.00;;;10.70;98.50;;;;;;10374550;28;20628;-87
2023/01/29 14:21:29;;;;;;;13.73;9.23;;;10.90;99.90;;;;;;10374655;28;20596;-87
2023/01/29 14:26:37;;;;;;;9.87;5.13;;;9.60;97.50;;;;;;10374085;28;20219;-87
2023/01/29 14:31:52;;;;;;;7.63;4.73;;;10.10;99.90;;;;;;10373974;28;20631;-87
2023/01/29 14:37:17;;;;;;;11.50;8.43;;;10.90;99.90;;;;;;10389344;28;20208;-86
2023/01/29 14:42:22;;;;;;;8.80;5.73;;;10.90;95.00;;;;;;10373748;28;20201;-86
2023/01/29 14:47:24;;;;;;;7.67;4.77;;;10.90;99.90;;;;;;10372105;28;20283;-87
2023/01/29 14:52:41;;;;;;;7.77;5.87;;;11.70;98.70;;;;;;10373468;28;20213;-87
2023/01/29 14:57:44;;;;;;;9.47;6.13;;;11.40;99.40;;;;;;10387989;28;20793;-87
2023/01/29 15:02:49;;;;;;;6.67;4.47;;;11.30;97.40;;;;;;10373601;28;20195;-87
2023/01/29 15:08:12;;;;;;;13.13;8.30;;;11.30;99.90;;;;;;10387558;28;20203;-86
2023/01/29 15:13:46;;;;;;;9.20;5.77;;;11.30;96.60;;;;;;10387992;28;20224;-87
2023/01/29 15:18:53;;;;;;;16.47;9.40;;;10.80;97.70;;;;;;10207724;29;20265;-87
2023/01/29 15:24:06;;;;;;;7.27;5.53;;;10.60;96.70;;;;;;10207868;29;20240;-87
2023/01/29 15:29:21;;;;;;;6.83;4.77;;;10.90;99.90;;;;;;10207285;29;20214;-87
2023/01/29 15:34:24;;;;;;;9.07;7.47;;;10.40;99.90;;;;;;10206458;29;20270;-87
2023/01/29 15:39:28;;;;;;;10.77;6.23;;;11.30;98.70;;;;;;10207059;29;20227;-87
2023/01/29 15:44:32;;;;;;;6.90;5.43;;;11.10;97.60;;;;;;10207091;29;20351;-87
2023/01/29 15:49:36;;;;;;;10.23;7.63;;;10.80;99.90;;;;;;10207193;29;20216;-86
2023/01/29 15:54:39;;;;;;;8.30;5.87;;;11.20;97.60;;;;;;10270304;28;20220;-87
2023/01/29 15:59:44;;;;;;;7.67;5.57;;;10.60;99.90;;;;;;10313045;28;20276;-87
2023/01/29 16:04:47;;;;;;;6.07;3.77;;;10.90;98.90;;;;;;10331137;28;20258;-87
2023/01/29 16:09:51;;;;;;;11.27;7.23;;;10.90;99.90;;;;;;10313469;28;20255;-87
2023/01/29 16:14:55;;;;;;;10.90;7.60;;;10.70;98.10;;;;;;10337891;28;20623;-86
2023/01/29 16:19:59;;;;;;;11.03;7.80;;;11.00;99.50;;;;;;10386225;28;20255;-87
2023/01/29 16:25:10;;;;;;;18.00;10.73;;;10.40;99.50;;;;;;10370837;28;20197;-86
2023/01/29 16:30:15;;;;;;;13.10;8.77;;;10.30;96.10;;;;;;10371055;28;20341;-88
2023/01/29 16:35:18;;;;;;;10.87;8.47;;;9.90;99.90;;;;;;10386327;28;20662;-88
2023/01/29 16:40:30;;;;;;;9.23;5.63;;;10.10;99.90;;;;;;10385848;28;20258;-88
2023/01/29 16:45:33;;;;;;;5.97;4.20;;;10.80;99.90;;;;;;10370884;28;20578;-88
2023/01/29 16:50:37;;;;;;;10.97;7.43;;;10.90;99.90;;;;;;10377794;28;20210;-87
2023/01/29 16:56:03;;;;;;;15.80;9.83;;;10.40;99.90;;;;;;10393282;28;20240;-87
2023/01/29 17:01:10;;;;;;;48.47;19.20;;;9.90;96.50;;;;;;10392746;28;20228;-87
2023/01/29 17:06:25;;;;;;;19.30;12.23;;;9.20;99.90;;;;;;10392635;28;20196;-87
2023/01/29 17:11:37;;;;;;;14.77;9.37;;;9.90;97.40;;;;;;10377703;28;20206;-87
2023/01/29 17:16:51;;;;;;;16.77;10.53;;;9.50;99.90;;;;;;10392615;28;20268;-87
2023/01/29 17:21:55;;;;;;;16.63;9.97;;;9.70;99.90;;;;;;10392094;28;20294;-87
2023/01/29 17:27:00;;;;;;;12.17;8.03;;;10.60;99.90;;;;;;10376912;28;20197;-87
2023/01/29 17:32:03;;;;;;;17.23;8.73;;;10.60;99.90;;;;;;10391462;28;20233;-87
2023/01/29 17:37:11;;;;;;;15.13;10.43;;;10.20;99.90;;;;;;10391563;28;20268;-87
2023/01/29 17:42:14;;;;;;;9.63;5.13;;;10.50;98.30;;;;;;10374948;28;20224;-87
2023/01/29 17:47:16;;;;;;;11.70;7.87;;;11.00;99.90;;;;;;10374740;28;20205;-87
2023/01/29 17:52:19;;;;;;;13.30;8.13;;;11.10;99.90;;;;;;10374317;28;20201;-87
2023/01/29 17:57:22;;;;;;;12.33;8.10;;;10.80;99.00;;;;;;10390018;28;20229;-87
2023/01/29 18:02:25;;;;;;;11.30;7.00;;;10.70;99.90;;;;;;10375389;28;20256;-87
2023/01/29 18:07:31;;;;;;;15.33;9.70;;;10.40;99.90;;;;;;10390167;28;20258;-87
2023/01/29 18:12:34;;;;;;;8.63;6.10;;;10.90;96.70;;;;;;10373807;28;20200;-87
2023/01/29 18:17:37;;;;;;;5.13;3.63;;;11.40;97.50;;;;;;10374715;28;20200;-87
2023/01/29 18:22:40;;;;;;;16.77;10.47;;;11.80;95.40;;;;;;10357063;28;20262;-87
2023/01/29 18:27:43;;;;;;;14.00;8.90;;;11.20;96.10;;;;;;10373740;28;20259;-86
2023/01/29 18:32:46;;;;;;;7.43;5.23;;;11.10;98.20;;;;;;10374053;28;20264;-86
2023/01/29 18:37:50;;;;;;;11.97;7.60;;;11.60;96.80;;;;;;10373746;28;20263;-86
2023/01/29 18:42:52;;;;;;;12.00;8.10;;;11.30;97.70;;;;;;10374232;28;20202;-86
2023/01/29 18:47:56;;;;;;;16.53;9.63;;;11.80;95.70;;;;;;10388887;28;20202;-86
2023/01/29 18:52:59;;;;;;;6.80;5.70;;;10.80;95.20;;;;;;10373954;28;20268;-86
2023/01/29 18:58:01;;;;;;;8.13;5.60;;;10.80;99.90;;;;;;10388476;28;20236;-86
2023/01/29 19:03:24;;;;;;;10.13;7.33;;;11.50;99.60;;;;;;10388285;28;20623;-86
2023/01/29 19:08:27;;;;;;;10.53;6.20;;;11.20;99.10;;;;;;10372434;28;20303;-86
2023/01/29 19:13:31;;;;;;;10.07;7.97;;;11.70;96.90;;;;;;10387731;28;20241;-86
2023/01/29 19:18:34;;;;;;;10.30;5.23;;;11.40;97.70;;;;;;10387647;28;20212;-86
2023/01/29 19:23:37;;;;;;;9.73;5.83;;;11.20;98.80;;;;;;10372646;28;20253;-87
2023/01/29 19:28:41;;;;;;;12.40;7.57;;;10.90;98.70;;;;;;10387763;28;20263;-87
2023/01/29 19:33:44;;;;;;;6.63;4.47;;;11.00;97.00;;;;;;10387094;28;20207;-87
2023/01/29 19:38:47;;;;;;;16.43;10.77;;;11.60;99.30;;;;;;10372022;28;20233;-87
2023/01/29 19:43:50;;;;;;;11.10;7.20;;;10.60;93.50;;;;;;10386824;28;20289;-87
2023/01/29 19:48:55;;;;;;;15.53;10.77;;;11.80;97.30;;;;;;10387151;28;20209;-86
2023/01/29 19:53:58;;;;;;;6.77;4.40;;;10.50;92.40;;;;;;10386986;28;20198;-86
2023/01/29 19:59:01;;;;;;;14.53;9.87;;;10.70;99.90;;;;;;10371131;28;20791;-86
2023/01/29 20:04:04;;;;;;;17.87;9.63;;;10.40;96.10;;;;;;10387033;28;20206;-86
2023/01/29 20:09:07;;;;;;;13.07;7.77;;;10.90;93.50;;;;;;10371559;28;20254;-86
2023/01/29 20:14:10;;;;;;;7.23;5.40;;;11.00;96.80;;;;;;10370831;28;20266;-86
2023/01/29 20:19:14;;;;;;;12.63;8.13;;;11.20;99.10;;;;;;10369725;28;20233;-86
2023/01/29 20:24:17;;;;;;;12.00;7.57;;;10.80;96.20;;;;;;10392522;28;20250;-87
2023/01/29 20:29:20;;;;;;;11.90;7.23;;;10.70;97.50;;;;;;10379186;28;20193;-86
2023/01/29 20:34:23;;;;;;;8.37;6.57;;;11.10;97.00;;;;;;10379048;28;20200;-86
2023/01/29 20:39:26;;;;;;;10.53;6.13;;;10.80;98.00;;;;;;10378471;28;20233;-87
2023/01/29 20:44:29;;;;;;;9.50;5.80;;;10.80;99.90;;;;;;10393909;28;20201;-87
2023/01/29 20:49:32;;;;;;;12.70;6.37;;;11.30;99.90;;;;;;10378603;28;20232;-86
2023/01/29 20:54:35;;;;;;;17.10;9.10;;;10.80;97.20;;;;;;10393162;28;20616;-86
2023/01/29 20:59:39;;;;;;;19.17;12.20;;;11.00;96.30;;;;;;10375998;28;20232;-86
2023/01/29 21:04:41;;;;;;;16.40;10.73;;;10.30;92.20;;;;;;10393107;28;20263;-86
2023/01/29 21:09:45;;;;;;;14.60;9.03;;;9.90;97.80;;;;;;10377728;28;20196;-86
2023/01/29 21:14:48;;;;;;;13.93;8.83;;;9.30;97.80;;;;;;10392610;28;20204;-86
2023/01/29 21:19:51;;;;;;;10.23;7.57;;;9.80;99.90;;;;;;10392492;28;20237;-86
2023/01/29 21:24:53;;;;;;;10.00;4.93;;;9.70;99.00;;;;;;10392408;28;20271;-87
2023/01/29 21:29:56;;;;;;;8.53;5.13;;;10.60;99.90;;;;;;10376643;28;20213;-86
2023/01/29 21:34:59;;;;;;;10.27;5.90;;;10.30;99.90;;;;;;10375189;28;20264;-87
2023/01/29 21:40:06;;;;;;;10.60;6.93;;;10.80;99.90;;;;;;10391739;28;20228;-86
2023/01/29 21:45:09;;;;;;;13.87;7.70;;;11.00;98.50;;;;;;10391095;28;20209;-86
2023/01/29 21:50:11;;;;;;;17.63;10.90;;;10.20;98.90;;;;;;10376194;28;20202;-87
2023/01/29 21:55:14;;;;;;;8.63;5.60;;;11.00;91.10;;;;;;10375582;28;20212;-86
2023/01/29 22:00:17;;;;;;;10.10;6.20;;;10.20;99.20;;;;;;10374212;28;20220;-87
2023/01/29 22:05:20;;;;;;;12.87;7.00;;;10.50;99.90;;;;;;10374067;28;20205;-87
2023/01/29 22:10:23;;;;;;;11.10;7.97;;;10.30;98.30;;;;;;10375233;28;20280;-86
2023/01/29 22:15:26;;;;;;;7.00;5.00;;;10.00;97.20;;;;;;10374976;28;20251;-87
2023/01/29 22:20:29;;;;;;;9.70;6.93;;;11.20;99.00;;;;;;10373279;28;20232;-87
2023/01/29 22:25:32;;;;;;;4.90;3.37;;;10.80;96.50;;;;;;10374438;28;20205;-87
2023/01/29 22:30:35;;;;;;;13.20;7.20;;;10.80;99.90;;;;;;10374461;28;20264;-87
2023/01/29 22:35:38;;;;;;;10.80;6.93;;;10.70;97.50;;;;;;10389573;28;20282;-86
2023/01/29 22:40:48;;;;;;;10.00;7.57;;;10.70;97.20;;;;;;10389316;28;20232;-86
2023/01/29 22:45:51;;;;;;;11.07;7.37;;;10.50;96.70;;;;;;10373623;28;20737;-86
2023/01/29 22:51:10;;;;;;;12.10;6.43;;;10.00;98.80;;;;;;10373476;28;20909;-87
2023/01/29 22:56:13;;;;;;;7.07;3.83;;;10.30;97.60;;;;;;10373462;28;20787;-87
2023/01/29 23:01:20;;;;;;;6.43;3.77;;;10.10;99.90;;;;;;10373304;28;20232;-86
2023/01/29 23:06:23;;;;;;;9.37;6.37;;;10.50;99.90;;;;;;10373373;28;20253;-87
2023/01/29 23:11:25;;;;;;;8.83;6.23;;;9.80;99.10;;;;;;10388323;28;20193;-87
2023/01/29 23:16:28;;;;;;;7.10;4.57;;;10.30;97.50;;;;;;10372858;28;20208;-87
2023/01/29 23:21:31;;;;;;;9.57;6.20;;;10.80;99.20;;;;;;10387931;28;20229;-87
2023/01/29 23:31:54;;;;;;;8.80;6.67;;;11.20;99.80;;;;;;10387368;28;20208;-86
2023/01/29 23:36:57;;;;;;;12.90;8.07;;;11.30;95.90;;;;;;10371943;28;20283;-87
2023/01/29 23:42:00;;;;;;;10.37;7.57;;;10.20;95.70;;;;;;10386955;28;20236;-86
2023/01/29 23:47:03;;;;;;;6.97;3.90;;;10.20;96.50;;;;;;10371806;28;20198;-87
2023/01/29 23:52:05;;;;;;;6.37;5.40;;;10.30;99.90;;;;;;10386586;28;20204;-87
2023/01/29 23:57:08;;;;;;;12.40;8.80;;;10.30;97.80;;;;;;10385868;28;20236;-87
